Time;durP1;ratioP1;P1;durP2;ratioP2;P2;SDS_P1;SDS_P2;PMS_P1;PMS_P2;Temp;Humidity;BMP_temperature;BMP_pressure;BME280_temperature;BME280_humidity;BME280_pressure;Samples;Min_cycle;Max_cycle;Signal;HPM_P1;HPM_P2
2021/07/10 00:01:57;;;;;;;8.67;7.83;;;18.70;99.90;;;;;;5008153;28;20445;-85
2021/07/10 00:04:23;;;;;;;8.50;7.70;;;18.80;99.90;;;;;;5008225;28;20312;-85
2021/07/10 00:06:49;;;;;;;12.90;8.93;;;18.90;99.90;;;;;;4993776;28;20240;-86
2021/07/10 00:09:15;;;;;;;9.00;8.20;;;18.80;99.90;;;;;;5007229;28;20321;-85
2021/07/10 00:11:41;;;;;;;9.50;8.60;;;18.90;99.90;;;;;;5003800;28;20192;-85
2021/07/10 00:14:07;;;;;;;9.07;8.17;;;18.70;99.90;;;;;;4986569;28;21025;-86
2021/07/10 00:16:33;;;;;;;8.63;7.53;;;18.50;99.90;;;;;;5004471;28;20189;-86
2021/07/10 00:18:59;;;;;;;9.10;8.20;;;18.40;99.90;;;;;;5005552;28;20437;-86
2021/07/10 00:21:25;;;;;;;10.47;7.70;;;18.50;99.90;;;;;;4989983;28;20617;-85
2021/07/10 00:23:51;;;;;;;11.30;7.80;;;18.50;99.90;;;;;;5003552;28;20550;-86
2021/07/10 00:26:25;;;;;;;8.13;7.33;;;18.30;99.90;;;;;;5000310;28;20197;-85
2021/07/10 00:28:50;;;;;;;10.63;8.00;;;18.40;99.90;;;;;;4981676;28;20285;-86
2021/07/10 00:31:16;;;;;;;9.90;7.33;;;18.50;99.90;;;;;;4987258;28;20452;-86
2021/07/10 00:33:42;;;;;;;8.57;7.70;;;18.30;99.90;;;;;;4999964;28;20514;-85
2021/07/10 00:36:08;;;;;;;8.73;7.83;;;18.20;99.90;;;;;;4988791;28;20674;-85
2021/07/10 00:38:34;;;;;;;10.57;8.53;;;18.10;99.90;;;;;;4998367;28;20329;-84
2021/07/10 00:41:01;;;;;;;9.23;8.43;;;17.90;99.90;;;;;;5002951;28;20523;-84
2021/07/10 00:43:26;;;;;;;9.20;8.07;;;18.00;99.90;;;;;;5005155;28;20213;-84
2021/07/10 00:45:52;;;;;;;8.20;7.30;;;18.20;99.90;;;;;;4999958;28;20443;-86
2021/07/10 00:48:18;;;;;;;9.30;7.90;;;18.20;99.90;;;;;;4983228;28;20213;-85
2021/07/10 00:50:44;;;;;;;8.93;8.07;;;18.40;99.90;;;;;;4973171;28;20475;-85
2021/07/10 00:53:11;;;;;;;9.90;7.47;;;18.20;99.90;;;;;;5000959;28;20464;-85
2021/07/10 00:55:36;;;;;;;8.53;7.67;;;18.20;99.90;;;;;;5006337;28;20181;-85
2021/07/10 00:58:03;;;;;;;8.67;7.90;;;18.40;99.90;;;;;;4998972;28;20456;-85
2021/07/10 01:00:29;;;;;;;9.07;6.77;;;18.30;99.90;;;;;;4986675;28;20194;-85
2021/07/10 01:02:55;;;;;;;8.70;7.33;;;18.20;99.90;;;;;;4978847;28;20853;-86
2021/07/10 01:05:26;;;;;;;8.10;7.30;;;18.10;99.90;;;;;;5003764;28;20858;-86
2021/07/10 01:07:52;;;;;;;10.83;7.23;;;18.10;99.90;;;;;;4997549;28;20439;-84
2021/07/10 01:10:18;;;;;;;8.13;7.33;;;18.10;99.90;;;;;;5005737;28;20519;-84
2021/07/10 01:12:48;;;;;;;13.00;7.80;;;18.10;99.90;;;;;;5003972;28;20468;-84
2021/07/10 01:15:15;;;;;;;8.43;7.63;;;18.30;99.90;;;;;;4996789;28;20436;-85
2021/07/10 01:17:44;;;;;;;12.60;10.57;;;18.10;99.90;;;;;;4999874;28;20875;-85
2021/07/10 01:20:14;;;;;;;10.67;9.37;;;18.40;99.90;;;;;;4999840;28;20523;-85
2021/07/10 01:22:41;;;;;;;11.43;10.20;;;18.30;99.90;;;;;;5000380;28;20498;-85
2021/07/10 01:25:10;;;;;;;13.33;11.67;;;18.10;99.90;;;;;;4984807;28;20441;-85
2021/07/10 01:27:36;;;;;;;12.30;11.10;;;18.20;99.90;;;;;;4985480;28;20799;-85
2021/07/10 01:30:04;;;;;;;13.80;12.33;;;18.40;99.90;;;;;;4998554;28;20471;-85
2021/07/10 01:32:30;;;;;;;13.17;11.10;;;18.50;99.90;;;;;;5001326;28;20495;-85
2021/07/10 01:34:56;;;;;;;10.90;9.80;;;18.50;99.90;;;;;;4986074;28;20432;-85
2021/07/10 01:37:22;;;;;;;9.30;8.50;;;18.30;99.90;;;;;;4998225;28;20196;-85
2021/07/10 01:39:48;;;;;;;14.33;8.23;;;18.00;99.90;;;;;;5006434;28;20189;-84
2021/07/10 01:42:13;;;;;;;13.27;8.50;;;18.10;99.90;;;;;;5008617;28;20185;-85
2021/07/10 01:44:39;;;;;;;8.17;7.23;;;17.70;99.90;;;;;;5004991;28;20223;-85
2021/07/10 01:47:08;;;;;;;8.40;7.60;;;17.70;99.90;;;;;;4991633;28;20184;-85
2021/07/10 01:49:34;;;;;;;8.60;7.83;;;17.40;99.90;;;;;;4994325;28;20472;-86
2021/07/10 01:52:00;;;;;;;8.27;7.47;;;17.20;99.90;;;;;;5004423;28;20810;-85
2021/07/10 01:54:26;;;;;;;9.73;8.90;;;17.30;99.90;;;;;;4988844;28;20205;-86
2021/07/10 01:56:52;;;;;;;8.63;7.80;;;17.40;99.90;;;;;;5003896;28;20191;-85
2021/07/10 01:59:18;;;;;;;11.97;9.00;;;17.30;99.90;;;;;;5003120;28;20197;-86
2021/07/10 02:01:48;;;;;;;9.00;8.23;;;17.20;99.90;;;;;;4983997;28;20984;-86
2021/07/10 02:04:18;;;;;;;9.10;8.17;;;17.30;99.90;;;;;;4984264;28;20993;-85
2021/07/10 02:06:44;;;;;;;8.97;8.07;;;17.20;99.90;;;;;;4999109;28;20446;-86
2021/07/10 02:09:10;;;;;;;9.27;8.37;;;17.20;99.90;;;;;;5004015;28;20471;-85
2021/07/10 02:11:37;;;;;;;9.47;8.57;;;17.10;99.90;;;;;;5001664;28;20455;-85
2021/07/10 02:14:04;;;;;;;9.43;8.53;;;17.10;99.90;;;;;;5003597;28;20232;-86
2021/07/10 02:16:30;;;;;;;10.00;9.00;;;17.20;99.90;;;;;;5003599;28;20842;-86
2021/07/10 02:18:59;;;;;;;9.57;8.77;;;17.40;99.90;;;;;;5000436;28;21103;-85
2021/07/10 02:21:25;;;;;;;9.40;8.60;;;17.50;99.90;;;;;;5003734;28;20424;-86
2021/07/10 02:23:51;;;;;;;9.93;8.97;;;17.60;99.90;;;;;;5000668;28;20518;-86
2021/07/10 02:26:18;;;;;;;9.60;8.70;;;17.50;99.90;;;;;;4990302;28;20792;-86
2021/07/10 02:28:44;;;;;;;9.90;8.90;;;17.60;99.90;;;;;;4984307;28;20926;-85
2021/07/10 02:31:11;;;;;;;11.67;9.60;;;17.70;99.90;;;;;;5002021;28;20817;-86
2021/07/10 02:33:37;;;;;;;10.70;9.40;;;17.80;99.90;;;;;;4986751;28;20509;-86
2021/07/10 02:36:03;;;;;;;13.67;9.47;;;17.60;99.90;;;;;;5001788;28;20524;-86
2021/07/10 02:38:29;;;;;;;9.60;8.60;;;17.50;99.90;;;;;;4998557;28;20516;-86
2021/07/10 02:40:54;;;;;;;9.33;8.43;;;17.60;99.90;;;;;;4972926;28;20453;-86
2021/07/10 02:43:20;;;;;;;15.20;8.40;;;17.70;99.90;;;;;;4998647;28;20300;-86
2021/07/10 02:45:46;;;;;;;9.50;8.30;;;17.60;99.90;;;;;;5001370;28;20515;-84
2021/07/10 02:48:13;;;;;;;9.90;8.90;;;17.70;99.90;;;;;;4967910;28;20224;-84
2021/07/10 02:50:39;;;;;;;9.00;7.67;;;17.70;99.90;;;;;;5006708;28;20209;-84
2021/07/10 02:53:06;;;;;;;10.30;8.80;;;17.50;99.90;;;;;;4999023;28;20535;-84
2021/07/10 02:55:33;;;;;;;8.93;8.07;;;17.40;99.90;;;;;;5005537;28;20429;-84
2021/07/10 02:57:59;;;;;;;10.27;8.87;;;17.30;99.90;;;;;;5001859;28;20439;-86
2021/07/10 03:00:26;;;;;;;9.93;8.80;;;17.40;99.90;;;;;;5000529;28;20440;-85
2021/07/10 03:02:52;;;;;;;9.50;8.60;;;17.60;99.90;;;;;;5002115;28;20248;-85
2021/07/10 03:05:18;;;;;;;9.10;8.20;;;17.60;99.90;;;;;;4999490;28;20463;-86
2021/07/10 03:07:44;;;;;;;10.57;9.47;;;17.60;99.90;;;;;;5009057;28;20823;-86
2021/07/10 03:10:20;;;;;;;10.23;9.23;;;17.60;99.90;;;;;;4998960;28;20209;-86
2021/07/10 03:12:46;;;;;;;10.27;9.33;;;17.40;99.90;;;;;;4982574;28;20845;-86
2021/07/10 03:15:15;;;;;;;9.83;8.83;;;17.30;99.90;;;;;;4986630;28;20433;-86
2021/07/10 03:17:44;;;;;;;9.67;8.77;;;17.20;99.90;;;;;;4990616;28;20440;-86
2021/07/10 03:20:11;;;;;;;9.57;8.30;;;17.40;99.90;;;;;;4985870;28;20428;-86
2021/07/10 03:22:37;;;;;;;10.07;9.20;;;17.50;99.90;;;;;;4987155;28;20443;-86
2021/07/10 03:25:05;;;;;;;9.67;8.77;;;17.30;99.90;;;;;;5002816;28;20513;-86
2021/07/10 03:27:32;;;;;;;9.43;7.93;;;17.40;99.90;;;;;;4984108;28;20970;-86
2021/07/10 03:29:58;;;;;;;9.53;8.63;;;17.30;99.90;;;;;;5002486;28;20499;-86
2021/07/10 03:32:23;;;;;;;10.10;7.93;;;17.60;99.90;;;;;;5004295;28;21188;-86
2021/07/10 03:34:58;;;;;;;11.67;8.03;;;17.60;99.90;;;;;;4999676;28;20437;-85
2021/07/10 03:37:24;;;;;;;8.77;7.30;;;17.50;99.90;;;;;;4986753;28;20271;-84
2021/07/10 03:39:50;;;;;;;8.27;7.57;;;17.50;99.90;;;;;;4985248;28;20494;-84
2021/07/10 03:42:23;;;;;;;9.50;8.70;;;17.50;99.90;;;;;;4967014;28;20613;-84
2021/07/10 03:44:54;;;;;;;8.67;7.40;;;17.50;99.90;;;;;;4987323;28;20216;-85
2021/07/10 03:47:24;;;;;;;8.37;7.57;;;17.30;99.90;;;;;;4978165;28;20452;-85
2021/07/10 03:49:53;;;;;;;8.00;7.30;;;17.30;99.90;;;;;;4971451;28;20479;-84
2021/07/10 03:52:23;;;;;;;9.30;8.40;;;17.20;99.90;;;;;;4984352;28;20510;-84
2021/07/10 07:50:57;;;;;;;6.30;5.80;;;21.00;99.90;;;;;;5004480;28;20430;-86
2021/07/10 07:53:23;;;;;;;8.20;6.50;;;20.90;99.90;;;;;;4951596;28;1328287;-86
2021/07/10 07:55:49;;;;;;;8.70;5.90;;;21.10;99.90;;;;;;5001708;28;20259;-87
2021/07/10 07:58:15;;;;;;;7.30;6.63;;;21.10;99.90;;;;;;5001301;28;20200;-87
2021/07/10 08:00:40;;;;;;;5.90;5.40;;;21.10;99.90;;;;;;5002178;28;20336;-87
2021/07/10 08:03:06;;;;;;;7.33;6.67;;;21.20;99.90;;;;;;4999286;28;20761;-87
2021/07/10 08:05:32;;;;;;;7.53;5.90;;;21.20;99.90;;;;;;4983105;28;20572;-87
2021/07/10 08:07:58;;;;;;;6.00;5.57;;;21.40;99.90;;;;;;4968049;28;20248;-88
2021/07/10 08:10:26;;;;;;;6.87;6.17;;;21.40;99.90;;;;;;5001279;28;20317;-86
2021/07/10 08:12:55;;;;;;;7.17;6.57;;;21.40;99.90;;;;;;5001565;28;20765;-86
2021/07/10 08:15:22;;;;;;;8.20;7.40;;;21.30;99.90;;;;;;4999850;28;20969;-87
2021/07/10 08:17:50;;;;;;;6.70;6.20;;;21.30;99.90;;;;;;5000994;28;20973;-87
2021/07/10 08:20:17;;;;;;;7.10;6.10;;;21.40;99.90;;;;;;4983026;28;20535;-87
2021/07/10 08:22:45;;;;;;;8.40;7.70;;;21.40;99.90;;;;;;5002002;28;20454;-86
2021/07/10 08:25:13;;;;;;;6.10;5.50;;;21.60;99.90;;;;;;4989183;28;20428;-86
2021/07/10 08:27:41;;;;;;;6.40;5.90;;;21.60;99.90;;;;;;5009455;28;20942;-84
2021/07/10 08:30:09;;;;;;;7.80;7.10;;;21.70;99.90;;;;;;5002486;28;20435;-84
2021/07/10 08:32:35;;;;;;;7.83;7.23;;;21.70;99.90;;;;;;4993480;28;20447;-84
2021/07/10 08:35:01;;;;;;;8.80;7.53;;;21.80;99.90;;;;;;4997814;28;20432;-84
2021/07/10 08:37:26;;;;;;;6.67;6.07;;;21.80;99.90;;;;;;5003513;28;20451;-86
2021/07/10 08:39:52;;;;;;;7.00;6.30;;;21.90;99.90;;;;;;5003803;28;20232;-86
2021/07/10 08:42:21;;;;;;;8.37;7.67;;;22.10;99.90;;;;;;4987133;28;20184;-86
2021/07/10 08:44:51;;;;;;;6.97;6.17;;;22.20;99.90;;;;;;4985845;28;20304;-86
2021/07/10 08:47:18;;;;;;;8.37;7.63;;;22.30;99.90;;;;;;4974710;28;20491;-87
2021/07/10 08:49:45;;;;;;;6.10;5.50;;;22.40;99.90;;;;;;4953936;28;20448;-86
2021/07/10 08:52:11;;;;;;;10.50;9.17;;;22.40;99.90;;;;;;4972533;28;20452;-87
2021/07/10 08:54:38;;;;;;;7.33;6.73;;;22.40;99.90;;;;;;5001403;28;20451;-86
2021/07/10 08:57:05;;;;;;;8.70;7.90;;;22.30;99.90;;;;;;5001149;28;20489;-85
2021/07/10 08:59:31;;;;;;;5.70;5.20;;;22.40;99.90;;;;;;5002708;28;20478;-85
2021/07/10 09:02:00;;;;;;;6.93;6.33;;;22.40;99.90;;;;;;4998674;28;20456;-86
2021/07/10 09:04:25;;;;;;;8.97;8.07;;;22.60;99.90;;;;;;5001640;28;20266;-88
2021/07/10 09:06:52;;;;;;;11.90;10.73;;;22.70;99.90;;;;;;5000498;28;20453;-72
2021/07/10 09:09:18;;;;;;;6.30;5.70;;;22.60;99.90;;;;;;4992797;28;20189;-72
2021/07/10 09:12:01;;;;;;;6.40;5.80;;;22.70;99.90;;;;;;4972553;28;20578;-73
2021/07/10 09:14:30;;;;;;;7.73;6.83;;;22.90;99.90;;;;;;4994609;28;20578;-72
2021/07/10 09:17:12;;;;;;;7.53;5.37;;;22.90;99.90;;;;;;4996778;28;20444;-75
2021/07/10 09:19:38;;;;;;;5.90;5.30;;;23.00;99.90;;;;;;4990141;28;20471;-72
2021/07/10 09:22:04;;;;;;;6.57;5.93;;;23.10;99.90;;;;;;4994343;28;20487;-73
2021/07/10 09:24:36;;;;;;;6.90;6.23;;;23.20;99.90;;;;;;4979774;28;21323;-73
2021/07/10 09:27:05;;;;;;;9.93;9.03;;;23.30;99.90;;;;;;4998551;28;20190;-73
2021/07/10 09:29:40;;;;;;;8.93;8.13;;;23.40;99.90;;;;;;4994468;28;20526;-75
2021/07/10 09:32:08;;;;;;;6.20;5.70;;;23.40;99.90;;;;;;4989629;28;20444;-73
2021/07/10 09:34:41;;;;;;;4.87;4.40;;;23.50;99.90;;;;;;4988911;28;20849;-74
2021/07/10 09:37:17;;;;;;;7.67;6.70;;;23.50;99.90;;;;;;4991791;28;20452;-75
2021/07/10 09:39:45;;;;;;;8.20;7.40;;;23.60;99.90;;;;;;4996108;28;20467;-73
2021/07/10 09:42:13;;;;;;;6.17;5.53;;;23.60;99.90;;;;;;4990417;28;20459;-77
2021/07/10 09:44:48;;;;;;;7.07;6.40;;;23.60;99.90;;;;;;5000834;28;20491;-73
2021/07/10 09:47:17;;;;;;;5.27;4.87;;;23.70;99.90;;;;;;4995535;28;20952;-73
2021/07/10 09:49:46;;;;;;;6.10;5.50;;;23.60;99.90;;;;;;4989858;28;20948;-73
2021/07/10 09:52:21;;;;;;;5.60;5.10;;;23.70;99.90;;;;;;4993309;28;20535;-74
2021/07/10 09:54:59;;;;;;;6.23;5.63;;;23.80;99.90;;;;;;4995031;28;20838;-75
2021/07/10 09:57:30;;;;;;;6.53;5.87;;;23.80;99.90;;;;;;4996665;28;20848;-74
2021/07/10 10:00:20;;;;;;;4.50;4.10;;;23.70;99.90;;;;;;4992993;28;20498;-73
2021/07/10 10:02:57;;;;;;;5.23;4.80;;;23.70;99.90;;;;;;4995181;28;20483;-74
2021/07/10 10:05:28;;;;;;;7.10;6.50;;;23.70;99.90;;;;;;4991855;28;21345;-73
2021/07/10 10:07:56;;;;;;;9.20;5.17;;;23.70;99.90;;;;;;4989568;28;21538;-73
2021/07/10 10:10:27;;;;;;;6.27;5.67;;;23.80;99.90;;;;;;4988648;28;20460;-73
2021/07/10 10:13:07;;;;;;;5.53;5.07;;;23.80;99.90;;;;;;4990209;28;20471;-73
2021/07/10 10:15:39;;;;;;;4.97;4.50;;;23.90;99.90;;;;;;4991045;28;20450;-72
2021/07/10 10:18:06;;;;;;;6.40;4.83;;;23.90;99.90;;;;;;4992535;28;21134;-73
2021/07/10 10:20:32;;;;;;;6.37;4.90;;;23.90;99.90;;;;;;4996114;28;20615;-71
2021/07/10 10:23:00;;;;;;;4.90;4.50;;;23.90;99.90;;;;;;4995618;28;20466;-72
2021/07/10 10:25:26;;;;;;;5.40;4.37;;;24.00;99.90;;;;;;4990782;28;20463;-73
2021/07/10 10:27:52;;;;;;;5.50;5.00;;;24.10;99.90;;;;;;4996373;28;20448;-73
2021/07/10 10:30:20;;;;;;;5.83;5.20;;;24.10;99.90;;;;;;4993870;28;20822;-73
2021/07/10 10:32:50;;;;;;;5.30;4.67;;;24.30;99.90;;;;;;4984815;28;21184;-73
2021/07/10 10:35:17;;;;;;;7.27;5.90;;;24.40;99.90;;;;;;4990615;28;20452;-73
2021/07/10 10:37:43;;;;;;;9.23;8.30;;;24.40;99.90;;;;;;4989970;28;21400;-72
2021/07/10 10:40:16;;;;;;;5.27;4.87;;;24.30;99.90;;;;;;4987809;28;20946;-73
2021/07/10 10:42:43;;;;;;;5.17;4.77;;;24.20;99.90;;;;;;4989573;28;20463;-73
2021/07/10 10:45:10;;;;;;;5.30;4.80;;;24.30;99.90;;;;;;4990920;28;20450;-73
2021/07/10 10:47:45;;;;;;;5.30;4.90;;;24.40;99.90;;;;;;4992635;28;20566;-75
2021/07/10 10:50:19;;;;;;;5.33;4.50;;;24.40;99.90;;;;;;4994868;28;21036;-73
2021/07/10 10:52:47;;;;;;;6.00;5.50;;;24.40;99.90;;;;;;4993740;28;20755;-72
2021/07/10 10:55:21;;;;;;;5.70;5.20;;;24.50;99.90;;;;;;4988145;28;20447;-73
2021/07/10 10:58:15;;;;;;;5.63;5.13;;;24.70;99.90;;;;;;4979265;28;20448;-73
2021/07/10 11:00:42;;;;;;;5.40;4.90;;;24.80;99.90;;;;;;4994757;28;20520;-73
2021/07/10 11:03:41;;;;;;;5.37;4.97;;;24.90;99.90;;;;;;4991567;28;20563;-73
2021/07/10 11:06:26;;;;;;;5.20;4.80;;;25.10;99.90;;;;;;4988964;28;20797;-72
2021/07/10 11:08:52;;;;;;;4.60;4.20;;;25.20;99.90;;;;;;4989357;28;20537;-74
2021/07/10 11:11:20;;;;;;;5.67;5.20;;;25.30;99.90;;;;;;4986520;28;20493;-74
2021/07/10 11:14:11;;;;;;;4.73;4.37;;;25.50;99.90;;;;;;4988334;28;21009;-74
2021/07/10 11:17:01;;;;;;;5.03;4.63;;;25.60;99.90;;;;;;4989485;28;20448;-73
2021/07/10 11:19:45;;;;;;;5.00;4.43;;;25.70;99.90;;;;;;4971604;28;21069;-72
2021/07/10 11:22:10;;;;;;;4.40;4.00;;;26.00;99.90;;;;;;4992310;28;20448;-74
2021/07/10 11:24:46;;;;;;;5.57;5.07;;;26.20;99.90;;;;;;4989494;28;20466;-73
2021/07/10 11:27:12;;;;;;;4.60;4.20;;;26.60;99.90;;;;;;4984619;28;20560;-73
2021/07/10 11:29:40;;;;;;;4.80;4.40;;;26.80;99.90;;;;;;4989933;28;20512;-72
2021/07/10 11:32:11;;;;;;;4.83;4.43;;;27.00;99.90;;;;;;4989477;28;20208;-74
2021/07/10 11:34:43;;;;;;;4.90;4.50;;;27.10;99.90;;;;;;4985131;28;20467;-72
2021/07/10 11:37:15;;;;;;;5.00;4.60;;;27.00;99.90;;;;;;4981213;28;20449;-72
2021/07/10 11:39:43;;;;;;;4.20;3.90;;;27.10;99.90;;;;;;4986321;28;20911;-73
2021/07/10 11:42:28;;;;;;;4.20;3.90;;;27.30;99.90;;;;;;4986321;28;20440;-74
2021/07/10 11:45:14;;;;;;;4.30;4.00;;;27.50;99.90;;;;;;4984213;28;21038;-75
2021/07/10 11:47:41;;;;;;;4.80;4.40;;;27.40;99.90;;;;;;4991615;28;20444;-76
2021/07/10 11:50:23;;;;;;;4.90;4.40;;;27.70;99.90;;;;;;4993047;28;20441;-79
2021/07/10 11:53:02;;;;;;;4.97;4.47;;;27.80;99.90;;;;;;4989359;28;20463;-76
2021/07/10 11:55:31;;;;;;;4.43;4.03;;;27.90;99.90;;;;;;4989247;28;20432;-74
2021/07/10 11:58:00;;;;;;;4.70;4.40;;;27.70;99.90;;;;;;4990233;28;20424;-77
2021/07/10 12:00:26;;;;;;;4.77;4.37;;;27.90;99.90;;;;;;4990301;28;20480;-76
2021/07/10 12:02:52;;;;;;;4.60;4.30;;;28.40;99.90;;;;;;4992025;28;20513;-76
2021/07/10 12:05:20;;;;;;;4.57;4.27;;;29.10;99.90;;;;;;4992028;28;20444;-75
2021/07/10 12:07:53;;;;;;;4.70;4.27;;;29.70;99.90;;;;;;4984992;28;20260;-75
2021/07/10 12:10:28;;;;;;;4.17;3.87;;;30.00;99.90;;;;;;4987605;28;20872;-75
2021/07/10 12:12:56;;;;;;;4.70;4.30;;;29.60;99.90;;;;;;4997803;28;20459;-74
2021/07/10 12:15:31;;;;;;;4.13;3.80;;;29.50;99.90;;;;;;4990263;28;20507;-74
2021/07/10 12:17:59;;;;;;;4.80;4.50;;;28.90;99.90;;;;;;4989100;28;20454;-73
2021/07/10 12:20:31;;;;;;;4.13;3.83;;;28.80;99.90;;;;;;4991978;28;20946;-74
2021/07/10 12:22:59;;;;;;;4.60;3.93;;;28.60;99.90;;;;;;5006335;28;20467;-74
2021/07/10 12:25:30;;;;;;;5.30;3.70;;;28.60;99.90;;;;;;5006148;28;20589;-73
2021/07/10 12:28:04;;;;;;;4.13;3.83;;;28.30;99.90;;;;;;5012993;28;20542;-72
2021/07/10 12:30:45;;;;;;;4.93;3.90;;;28.30;99.90;;;;;;5007988;28;20432;-72
2021/07/10 12:33:31;;;;;;;5.17;4.77;;;28.30;99.90;;;;;;5001169;28;20494;-72
2021/07/10 12:36:10;;;;;;;6.10;5.60;;;28.10;99.90;;;;;;4982547;28;20895;-74
2021/07/10 12:38:48;;;;;;;5.77;5.07;;;28.10;99.90;;;;;;4990053;28;20440;-71
2021/07/10 12:41:38;;;;;;;4.37;3.97;;;28.10;99.90;;;;;;4981181;28;20467;-72
2021/07/10 12:44:34;;;;;;;5.30;4.80;;;28.50;99.90;;;;;;4986282;28;20523;-76
2021/07/10 12:47:18;;;;;;;3.93;3.63;;;29.80;99.90;;;;;;4981624;28;20954;-73
2021/07/10 12:49:58;;;;;;;5.00;4.60;;;31.70;99.90;;;;;;4984661;28;20447;-73
2021/07/10 12:52:27;;;;;;;4.33;4.03;;;32.40;97.70;;;;;;4982288;28;20459;-77
2021/07/10 12:55:11;;;;;;;6.93;5.43;;;31.60;95.60;;;;;;4985048;28;20962;-77
2021/07/10 12:57:49;;;;;;;4.50;4.20;;;31.30;97.20;;;;;;4988296;28;20553;-75
2021/07/10 13:00:22;;;;;;;8.80;8.10;;;31.80;95.40;;;;;;4989492;28;20567;-76
2021/07/10 13:02:54;;;;;;;5.50;5.10;;;32.70;95.20;;;;;;4986523;28;21105;-73
2021/07/10 13:05:21;;;;;;;6.37;5.87;;;33.40;93.30;;;;;;4994761;28;21043;-74
2021/07/10 13:08:06;;;;;;;11.37;10.47;;;33.10;91.40;;;;;;4986125;28;20440;-75
2021/07/10 13:10:35;;;;;;;4.40;4.00;;;32.80;90.90;;;;;;4989105;28;20443;-79
2021/07/10 13:13:05;;;;;;;7.70;7.03;;;32.40;90.10;;;;;;4991274;28;20459;-74
2021/07/10 13:15:31;;;;;;;5.10;4.70;;;32.30;90.70;;;;;;4990808;28;20441;-75
2021/07/10 13:18:24;;;;;;;4.87;4.00;;;32.20;90.20;;;;;;4988084;28;20929;-77
2021/07/10 13:21:00;;;;;;;5.37;4.97;;;32.00;88.20;;;;;;4982277;28;20292;-76
2021/07/10 13:23:35;;;;;;;6.27;5.67;;;32.30;87.90;;;;;;4972642;28;20455;-75
2021/07/10 13:26:04;;;;;;;5.30;4.10;;;33.20;89.60;;;;;;4989614;28;20496;-74
2021/07/10 13:28:44;;;;;;;4.13;3.83;;;34.10;89.70;;;;;;4987757;28;20503;-73
2021/07/10 13:31:35;;;;;;;4.50;4.17;;;34.80;82.80;;;;;;4989400;28;20467;-74
2021/07/10 13:34:14;;;;;;;3.53;3.33;;;35.20;81.00;;;;;;4989865;28;20558;-75
2021/07/10 13:36:41;;;;;;;3.50;3.30;;;36.10;76.70;;;;;;4986304;28;20439;-73
2021/07/10 13:39:06;;;;;;;4.10;3.80;;;37.00;71.50;;;;;;4989335;28;20419;-73
2021/07/10 13:41:35;;;;;;;4.00;3.70;;;37.10;71.50;;;;;;4986379;28;21980;-73
2021/07/10 13:44:04;;;;;;;5.73;5.23;;;39.20;65.70;;;;;;4981595;28;20680;-77
2021/07/10 13:46:44;;;;;;;4.43;3.77;;;42.10;59.80;;;;;;4977468;28;20411;-74
2021/07/10 13:49:20;;;;;;;3.23;3.03;;;43.50;54.20;;;;;;4988157;28;21418;-75
2021/07/10 13:51:48;;;;;;;3.87;3.57;;;46.10;49.30;;;;;;4992661;28;20520;-74
2021/07/10 13:54:46;;;;;;;4.03;3.73;;;47.20;43.00;;;;;;4991248;28;20501;-75
2021/07/10 13:57:18;;;;;;;4.07;3.70;;;45.10;42.60;;;;;;4955227;28;20875;-77
2021/07/10 13:59:58;;;;;;;3.77;3.50;;;42.90;41.90;;;;;;4996483;28;20434;-77
2021/07/10 14:02:25;;;;;;;4.70;4.30;;;41.90;42.50;;;;;;4987934;28;20455;-74
2021/07/10 14:05:03;;;;;;;7.70;3.60;;;41.40;42.90;;;;;;4994295;28;20449;-73
2021/07/10 14:07:29;;;;;;;4.17;3.87;;;40.20;44.70;;;;;;4998730;28;21014;-76
2021/07/10 14:09:55;;;;;;;3.70;3.50;;;40.60;45.00;;;;;;4988040;28;20622;-76
2021/07/10 14:12:21;;;;;;;3.57;3.07;;;42.00;44.10;;;;;;4991448;28;20502;-75
2021/07/10 14:14:46;;;;;;;3.53;3.23;;;44.60;42.30;;;;;;4997740;28;20195;-75
2021/07/10 14:17:12;;;;;;;3.50;3.20;;;45.70;40.20;;;;;;4972495;28;20747;-74
2021/07/10 14:19:38;;;;;;;3.50;3.30;;;46.90;38.00;;;;;;4989242;28;20200;-74
2021/07/10 14:22:03;;;;;;;3.50;3.30;;;44.60;38.70;;;;;;4997279;28;22403;-80
2021/07/10 14:24:29;;;;;;;3.30;3.10;;;46.40;38.60;;;;;;4992352;28;20208;-75
2021/07/10 14:26:55;;;;;;;4.22;3.92;;;47.70;37.50;;;;;;4992791;28;20265;-74
2021/07/10 14:29:20;;;;;;;3.10;2.90;;;48.60;35.40;;;;;;4987928;28;20197;-76
2021/07/10 14:31:46;;;;;;;3.30;3.10;;;48.70;35.00;;;;;;4993175;28;20280;-74
2021/07/10 14:34:12;;;;;;;3.70;3.40;;;49.40;34.60;;;;;;4991992;28;20224;-73
2021/07/10 14:36:37;;;;;;;4.28;3.75;;;49.50;33.20;;;;;;4993530;28;20224;-74
2021/07/10 14:39:04;;;;;;;3.20;3.00;;;49.00;33.70;;;;;;4985583;28;20267;-73
2021/07/10 14:41:30;;;;;;;3.28;3.08;;;49.80;33.00;;;;;;4990325;28;20283;-73
2021/07/10 14:43:56;;;;;;;3.03;2.83;;;50.40;32.20;;;;;;4986930;28;20314;-74
2021/07/10 14:46:22;;;;;;;3.50;3.30;;;49.40;31.70;;;;;;4989077;28;20319;-74
2021/07/10 14:48:47;;;;;;;3.25;3.05;;;47.90;31.50;;;;;;4996474;28;20192;-81
2021/07/10 14:51:13;;;;;;;3.30;3.10;;;47.40;32.20;;;;;;4990735;28;20246;-75
2021/07/10 14:53:38;;;;;;;3.60;3.30;;;46.20;32.90;;;;;;4995193;28;20223;-73
2021/07/10 14:56:05;;;;;;;3.40;3.20;;;44.90;34.20;;;;;;4989341;28;20193;-74
2021/07/10 14:58:30;;;;;;;3.90;3.60;;;43.90;34.20;;;;;;4997698;28;20204;-77
2021/07/10 15:00:56;;;;;;;4.20;3.80;;;43.90;35.60;;;;;;4994818;28;21061;-73
2021/07/10 15:03:21;;;;;;;3.50;3.30;;;43.30;35.30;;;;;;4992511;28;20247;-73
2021/07/10 15:05:47;;;;;;;3.30;3.10;;;43.60;35.60;;;;;;4996063;28;20199;-73
2021/07/10 15:08:19;;;;;;;3.30;3.10;;;43.50;35.20;;;;;;4991327;28;20693;-74
2021/07/10 15:10:45;;;;;;;4.00;3.43;;;43.30;35.50;;;;;;4991947;28;20211;-74
2021/07/10 15:13:10;;;;;;;3.60;3.40;;;43.90;36.00;;;;;;4991689;28;20977;-74
2021/07/10 15:15:36;;;;;;;3.33;3.13;;;44.20;34.60;;;;;;4998209;28;20193;-73
2021/07/10 15:18:02;;;;;;;3.53;3.33;;;43.60;34.60;;;;;;4988799;28;20201;-74
2021/07/10 15:20:28;;;;;;;3.53;3.33;;;43.70;35.80;;;;;;4973056;28;20436;-72
2021/07/10 15:22:55;;;;;;;3.60;3.40;;;43.90;36.00;;;;;;4991618;28;20475;-74
2021/07/10 15:25:26;;;;;;;3.80;3.50;;;44.40;35.40;;;;;;5000741;28;20190;-73
2021/07/10 15:27:53;;;;;;;3.30;3.10;;;44.40;34.90;;;;;;5002138;28;20515;-79
2021/07/10 15:30:20;;;;;;;3.83;3.63;;;44.00;35.50;;;;;;4998014;28;20889;-75
2021/07/10 15:32:47;;;;;;;3.10;2.90;;;43.70;35.30;;;;;;5000307;28;20647;-75
2021/07/10 15:35:16;;;;;;;3.97;3.33;;;42.60;35.30;;;;;;4993922;28;21108;-75
2021/07/10 15:37:43;;;;;;;3.90;3.60;;;42.30;36.40;;;;;;4978591;28;20448;-73
2021/07/10 15:40:09;;;;;;;3.13;2.93;;;41.30;36.40;;;;;;4992010;28;20808;-74
2021/07/10 15:42:36;;;;;;;3.07;2.87;;;41.80;36.60;;;;;;4992562;28;20436;-79
2021/07/10 15:45:02;;;;;;;3.33;3.13;;;41.50;36.60;;;;;;4991521;28;20493;-75
2021/07/10 15:47:28;;;;;;;9.10;4.80;;;40.60;36.90;;;;;;4995073;28;20795;-74
2021/07/10 15:49:54;;;;;;;3.67;3.47;;;40.20;38.20;;;;;;4993036;28;20476;-74
2021/07/10 15:52:19;;;;;;;6.67;6.27;;;39.40;38.90;;;;;;4989147;28;21347;-74
2021/07/10 15:54:46;;;;;;;9.27;8.47;;;39.00;39.00;;;;;;4992096;28;20356;-82
2021/07/10 15:57:11;;;;;;;6.53;5.63;;;37.90;40.60;;;;;;5000386;28;20678;-74
2021/07/10 15:59:37;;;;;;;7.67;7.07;;;37.50;41.20;;;;;;4995832;28;20410;-76
2021/07/10 16:02:03;;;;;;;4.17;3.87;;;36.90;42.00;;;;;;4991428;28;20190;-74
2021/07/10 16:04:28;;;;;;;4.83;3.60;;;36.20;42.60;;;;;;4998277;28;20428;-76
2021/07/10 16:06:54;;;;;;;4.47;4.17;;;36.00;42.90;;;;;;4996978;28;20260;-77
2021/07/10 16:09:20;;;;;;;6.07;4.50;;;35.80;43.40;;;;;;4993788;28;20186;-74
2021/07/10 16:11:46;;;;;;;3.63;3.33;;;35.60;44.10;;;;;;4986364;28;20276;-73
2021/07/10 16:14:11;;;;;;;4.23;3.93;;;35.40;44.00;;;;;;4988051;28;20213;-73
2021/07/10 16:16:37;;;;;;;4.20;3.73;;;35.50;44.10;;;;;;4968477;28;20190;-80
2021/07/10 16:19:04;;;;;;;4.03;3.73;;;35.20;43.80;;;;;;4989082;28;20200;-78
2021/07/10 16:21:31;;;;;;;4.33;3.93;;;34.40;44.20;;;;;;4963526;28;21388;-73
2021/07/10 16:23:56;;;;;;;4.60;4.27;;;34.30;45.70;;;;;;4985311;28;20464;-73
2021/07/10 16:26:22;;;;;;;4.73;4.33;;;34.30;45.10;;;;;;4989259;28;20905;-73
2021/07/10 16:28:48;;;;;;;4.17;3.87;;;34.20;45.30;;;;;;4987971;28;20222;-73
2021/07/10 16:31:14;;;;;;;5.20;4.80;;;34.20;45.50;;;;;;4994983;28;20259;-78
2021/07/10 16:33:39;;;;;;;4.17;3.87;;;34.00;46.00;;;;;;4995850;28;20296;-74
2021/07/10 16:36:05;;;;;;;8.90;5.87;;;33.70;46.60;;;;;;4989344;28;20184;-73
2021/07/10 16:38:31;;;;;;;4.97;4.50;;;33.30;46.20;;;;;;4987399;28;20188;-75
2021/07/10 16:40:58;;;;;;;4.63;4.23;;;33.20;48.10;;;;;;4991681;28;20428;-74
2021/07/10 16:43:23;;;;;;;4.67;4.27;;;33.30;47.30;;;;;;4986895;28;20472;-74
2021/07/10 16:45:49;;;;;;;3.50;3.20;;;33.40;46.90;;;;;;4989689;28;20452;-74
2021/07/10 16:48:15;;;;;;;3.90;3.60;;;33.00;47.00;;;;;;4985030;28;20247;-73
2021/07/10 16:50:43;;;;;;;3.20;3.00;;;33.10;47.20;;;;;;4984970;28;20214;-73
2021/07/10 16:53:10;;;;;;;3.80;3.50;;;33.10;47.00;;;;;;4988424;28;20282;-75